Sunday, November 23, 2014
11:05 UTC
  |  Log In   |  Register Free
Airport Search:

Vidalia Regional Airport
(KVDI)

Vidalia Regional Airport Diagram
No Airport Diagram Available

FAA data valid effective November 13, 2014 - January 08, 2015 (unless otherwise noted).

 
 
 
 
 
 
 
 
 
 
 
 
 
 

Current Aviation Weather for Vidalia Regional Airport (KVDI)

The most recent METAR observation for KVDI was updated at: 1020
METAR Summary (Translated METAR)
KVDI
230955Z AUTO 08009KT 7SM RA OVC004 15/15 A3008 RMK AO2
KAZE
230955Z AUTO 06006KT 5SM RA OVC004 15/15 A3005 RMK AO2 T01510151
(23.2 nm SW from KVDI)
KSBO
230955Z AUTO 07008G14KT 5SM +RA BKN005 BKN016 OVC038 15/15 A3011 RMK AO2
(25 nm NE from KVDI)
TAF
No TAF information found within 50 nm of KVDI
  Airport Weather Conditions for KVDI

 Current Weather at VDI
57° F
Rain
East winds at 9.2 mph
VDI NOAA Radar

Pressure: 30.09 in
Humidity: 100%
Wind: East at 9.2 MPH (8 KT)
Dew Point: 57.2°F
Visibility: 5.00 mi


Airport Weather Forecast for KVDI

Translated METAR and TAF for KVDI
Translated METAR for KVDI (1100 UTC 23 November 2014)
found at http://aviationweather.gov/adds/metars/
 
METAR text: KVDI 231055Z AUTO 08011G14KT 5SM RA OVC004 15/15 A3007 RMK AO2
Conditions at: KVDI (VIDALIA MUNI , GA, US) observed 1055 UTC 23 November 2014
Temperature: 15.0°C (59°F)
Dewpoint: 15.0°C (59°F) [RH = 100%]
Pressure (altimeter): 30.07 inches Hg (1018.4 mb)
Winds: from the E (80 degrees) at 13 MPH (11 knots; 5.7 m/s)
gusting to 16 MPH (14 knots; 7.3 m/s)
Visibility: 5 miles (8 km)
Ceiling: 400 feet AGL
Clouds: overcast cloud deck at 400 feet AGL
Weather: RA  (rain)
Translated TAF for KVDI

There is no translated TAF available for this airport

Find All Airport Services Find A Hotel Find A Rental Car Find A Golf Course Find A Restaurant $100 Hamburger



FBO's on the Field
FBO Company Facility Photos Services Transportation Aviation Fuel Prices: Prices include tax
Catering Weather Repair Courtesy Rental Type 100LL JetA JetA+ MOGAS 8087
 
Vidalia Regional Airport

This FBO has not yet been rated
FS:Phillips 66
Last Updated: Nov-03
Login to update fuel prices
SS:
Contact Vidalia Regional AirportMore FBO Information
 
Add another FBO Facility Photos Catering Weather Repair Courtesy Rental Type 100LL JetA JetA+ MOGAS 8087
Services Transportation Aviation Fuel Prices: Prices include tax


model-print
model-print
model-print
model-print